Terminal Aerodrome Forecast
Issued by NWS

Home | Current Version | Previous Version | Text Only | Print | Product List | Glossary On
Versions: 1 2 3 4 5 6 7 8 9 10 11 12 13 14 15 16
000
FTUS43 KPAH 250500
TAFCGI
TAF
KCGI 250521Z 2506/2606 21005KT P6SM BKN150
     FM251400 23009KT 2SM -RA BR OVC010
     FM252200 30012KT 4SM -RA OVC015
     FM260300 33015G22KT 6SM -RA OVC015=

USA.gov is the U.S. government's official web portal to all federal, state and local government web resources and services.